Time;durP1;ratioP1;P1;durP2;ratioP2;P2;SDS_P1;SDS_P2;PMS_P1;PMS_P2;Temp;Humidity;BMP_temperature;BMP_pressure;BME280_temperature;BME280_humidity;BME280_pressure;Samples;Min_cycle;Max_cycle;Signal;HPM_P1;HPM_P2
2022/03/21 00:01:20;;;;;;;25.57;9.15;;;6.30;99.90;;;;;;1832950;76;21157;-79
2022/03/21 00:03:48;;;;;;;10.32;8.05;;;6.30;99.90;;;;;;1812110;77;21099;-79
2022/03/21 00:06:15;;;;;;;12.37;8.85;;;6.20;99.90;;;;;;1811504;77;21141;-79
2022/03/21 00:08:43;;;;;;;13.83;9.30;;;6.20;99.90;;;;;;1822723;77;21486;-79
2022/03/21 00:11:11;;;;;;;12.53;8.80;;;6.10;99.90;;;;;;1846302;77;21074;-79
2022/03/21 00:13:41;;;;;;;14.35;8.95;;;6.00;99.90;;;;;;1849747;77;21597;-79
2022/03/21 00:16:08;;;;;;;14.18;8.78;;;6.00;99.90;;;;;;1828109;77;21177;-79
2022/03/21 00:18:36;;;;;;;9.93;7.83;;;5.90;99.90;;;;;;1823654;77;21086;-79
2022/03/21 00:21:04;;;;;;;13.32;8.58;;;6.00;99.90;;;;;;1816398;77;21184;-77
2022/03/21 00:23:32;;;;;;;11.93;8.60;;;5.90;99.90;;;;;;1818339;77;21526;-77
2022/03/21 00:25:59;;;;;;;11.57;7.95;;;5.90;99.90;;;;;;1817721;77;21483;-77
2022/03/21 00:28:26;;;;;;;23.67;8.80;;;5.80;99.90;;;;;;1813980;78;21083;-77
2022/03/21 00:30:56;;;;;;;11.25;8.23;;;5.80;99.90;;;;;;1833208;76;21561;-77
2022/03/21 00:33:23;;;;;;;16.85;9.18;;;5.80;99.90;;;;;;1804510;77;21056;-78
2022/03/21 00:35:50;;;;;;;15.88;9.05;;;5.70;99.90;;;;;;1812100;77;21146;-78
2022/03/21 00:38:18;;;;;;;16.52;9.83;;;5.60;99.90;;;;;;1821656;77;21149;-77
2022/03/21 00:40:46;;;;;;;16.85;8.78;;;5.60;99.90;;;;;;1810666;77;21153;-78
2022/03/21 00:43:15;;;;;;;15.70;8.73;;;5.60;99.90;;;;;;1820787;77;21148;-77
2022/03/21 00:45:42;;;;;;;13.03;8.33;;;5.60;99.90;;;;;;1809500;78;21156;-78
2022/03/21 00:48:10;;;;;;;16.75;9.75;;;5.50;99.90;;;;;;1812293;77;21087;-78
2022/03/21 00:50:37;;;;;;;16.45;9.40;;;5.50;99.90;;;;;;1827930;77;21149;-78
2022/03/21 00:53:04;;;;;;;13.53;9.03;;;5.50;99.90;;;;;;1830268;76;21145;-78
2022/03/21 00:55:32;;;;;;;14.20;9.45;;;5.50;99.90;;;;;;1832044;77;21093;-78
2022/03/21 00:57:59;;;;;;;16.25;9.40;;;5.50;99.90;;;;;;1831211;77;21134;-78
2022/03/21 01:00:28;;;;;;;14.60;9.28;;;5.40;99.90;;;;;;1825197;77;21527;-79
2022/03/21 01:02:56;;;;;;;17.55;9.98;;;5.40;99.90;;;;;;1818505;77;21086;-78
2022/03/21 01:05:23;;;;;;;17.95;9.13;;;5.30;99.90;;;;;;1826441;78;21247;-77
2022/03/21 01:07:51;;;;;;;14.30;9.38;;;5.30;99.90;;;;;;1827490;77;21142;-79
2022/03/21 01:10:19;;;;;;;20.00;8.78;;;5.20;99.90;;;;;;1818742;78;21432;-78
2022/03/21 01:12:46;;;;;;;13.90;8.73;;;5.30;99.90;;;;;;1814066;77;21152;-78
2022/03/21 01:15:15;;;;;;;13.83;9.03;;;5.20;99.90;;;;;;1801854;77;21078;-79
2022/03/21 01:17:43;;;;;;;14.87;8.68;;;5.20;99.90;;;;;;1831761;77;21130;-79
2022/03/21 01:20:11;;;;;;;12.58;8.50;;;5.20;99.90;;;;;;1809152;78;21090;-79
2022/03/21 01:22:40;;;;;;;15.40;8.60;;;5.10;99.90;;;;;;1846308;77;21522;-78
2022/03/21 01:25:08;;;;;;;10.13;8.08;;;5.10;99.90;;;;;;1844431;77;21107;-78
2022/03/21 01:27:36;;;;;;;14.27;8.87;;;5.10;99.90;;;;;;1819272;77;21486;-77
2022/03/21 01:30:04;;;;;;;13.93;8.25;;;5.10;99.90;;;;;;1819857;76;21107;-79
2022/03/21 01:32:33;;;;;;;14.23;8.75;;;5.10;99.90;;;;;;1825133;76;21067;-79
2022/03/21 01:35:00;;;;;;;13.55;8.65;;;4.90;99.90;;;;;;1812457;77;21067;-79
2022/03/21 01:37:28;;;;;;;15.35;8.50;;;4.90;99.90;;;;;;1836710;78;21068;-78
2022/03/21 01:39:55;;;;;;;15.08;9.10;;;4.90;99.90;;;;;;1814976;77;21082;-78
2022/03/21 01:42:22;;;;;;;10.82;7.72;;;4.80;99.90;;;;;;1805944;77;21169;-79
2022/03/21 01:44:55;;;;;;;16.75;8.70;;;4.60;99.90;;;;;;1825584;77;21130;-78
2022/03/21 01:47:24;;;;;;;9.55;7.85;;;4.60;99.90;;;;;;1817288;77;21060;-79
2022/03/21 01:49:51;;;;;;;11.60;8.40;;;4.60;99.90;;;;;;1834243;77;21064;-78
2022/03/21 01:52:21;;;;;;;12.82;8.23;;;4.60;99.90;;;;;;1821331;78;21079;-78
2022/03/21 01:57:33;;;;;;;11.88;8.30;;;4.70;99.90;;;;;;1824674;76;21153;-79
2022/03/21 02:00:01;;;;;;;15.15;9.15;;;4.60;99.90;;;;;;1813952;78;21083;-78
2022/03/21 02:02:28;;;;;;;13.83;8.75;;;4.50;99.90;;;;;;1810610;77;21223;-78
2022/03/21 02:04:55;;;;;;;14.80;8.78;;;4.60;99.90;;;;;;1842023;77;21091;-79
2022/03/21 02:07:25;;;;;;;13.93;8.45;;;4.60;99.90;;;;;;1833195;77;21064;-78
2022/03/21 02:09:54;;;;;;;12.90;8.20;;;4.50;99.90;;;;;;1824611;77;21089;-79
2022/03/21 02:12:21;;;;;;;13.78;7.67;;;4.40;99.90;;;;;;1807580;77;21275;-79
2022/03/21 02:14:49;;;;;;;13.08;8.75;;;4.50;99.90;;;;;;1815140;78;21067;-78
2022/03/21 02:17:19;;;;;;;14.05;8.40;;;4.40;99.90;;;;;;1822965;77;21463;-79
2022/03/21 02:19:47;;;;;;;13.30;8.40;;;4.40;99.90;;;;;;1821314;77;21161;-79
2022/03/21 02:22:52;;;;;;;12.00;8.28;;;4.40;99.90;;;;;;1816774;78;21083;-78
2022/03/21 02:25:37;;;;;;;12.10;8.50;;;4.30;99.90;;;;;;1809998;78;21180;-79
2022/03/21 02:28:07;;;;;;;13.43;8.75;;;4.30;99.90;;;;;;1819702;77;21084;-78
2022/03/21 02:30:37;;;;;;;12.05;8.98;;;4.20;99.90;;;;;;1810428;77;21079;-78
2022/03/21 02:33:04;;;;;;;14.63;8.73;;;4.20;99.90;;;;;;1833082;76;21098;-77
2022/03/21 02:35:34;;;;;;;15.45;8.83;;;4.20;99.90;;;;;;1811037;78;21117;-78
2022/03/21 02:38:01;;;;;;;13.53;8.98;;;4.10;99.90;;;;;;1829697;77;21215;-77
2022/03/21 02:40:29;;;;;;;14.80;8.58;;;4.20;99.90;;;;;;1840050;76;21068;-78
2022/03/21 02:42:56;;;;;;;13.60;8.58;;;4.10;99.90;;;;;;1832482;77;21070;-79
2022/03/21 02:45:25;;;;;;;19.77;8.58;;;4.20;99.90;;;;;;1824765;77;21142;-77
2022/03/21 02:47:52;;;;;;;12.30;8.53;;;4.20;99.90;;;;;;1811946;77;21052;-78
2022/03/21 02:50:26;;;;;;;14.10;8.90;;;4.20;99.90;;;;;;1810602;78;21084;-77
2022/03/21 02:52:53;;;;;;;14.73;9.28;;;4.10;99.90;;;;;;1832096;77;21074;-78
2022/03/21 02:55:21;;;;;;;12.25;8.38;;;4.10;99.90;;;;;;1795905;77;21079;-77
2022/03/21 02:57:48;;;;;;;13.90;8.63;;;3.90;99.90;;;;;;1818046;77;21086;-77
2022/03/21 03:00:15;;;;;;;13.00;8.88;;;3.90;99.90;;;;;;1826873;77;21141;-77
2022/03/21 03:02:43;;;;;;;13.00;9.45;;;3.90;99.90;;;;;;1824859;77;21169;-77
2022/03/21 03:05:10;;;;;;;12.68;8.93;;;3.90;99.90;;;;;;1818257;76;21498;-76
2022/03/21 03:07:37;;;;;;;11.18;8.35;;;3.90;99.90;;;;;;1818911;77;21083;-77
2022/03/21 03:10:05;;;;;;;11.53;8.50;;;3.90;99.90;;;;;;1821393;77;21079;-78
2022/03/21 03:12:33;;;;;;;13.55;8.68;;;3.70;99.90;;;;;;1824892;77;21067;-78
2022/03/21 03:15:00;;;;;;;12.53;8.85;;;3.80;99.90;;;;;;1830451;77;21218;-77
2022/03/21 03:17:27;;;;;;;13.70;8.68;;;3.80;99.90;;;;;;1807151;77;21529;-77
2022/03/21 03:19:55;;;;;;;12.78;8.50;;;3.70;99.90;;;;;;1819360;77;21092;-77
2022/03/21 03:22:24;;;;;;;13.68;8.68;;;3.70;99.90;;;;;;1833337;76;21161;-77
2022/03/21 03:24:52;;;;;;;17.75;8.98;;;3.70;99.90;;;;;;1829214;77;21475;-77
2022/03/21 03:27:19;;;;;;;18.20;9.50;;;3.70;99.90;;;;;;1829159;77;21525;-77
2022/03/21 03:29:46;;;;;;;13.20;8.78;;;3.60;99.90;;;;;;1829914;77;21062;-77
2022/03/21 03:32:14;;;;;;;18.10;8.38;;;3.60;99.90;;;;;;1837570;76;21083;-78
2022/03/21 03:34:41;;;;;;;15.40;8.60;;;3.60;99.90;;;;;;1827454;77;21564;-78
2022/03/21 03:37:08;;;;;;;13.80;8.28;;;3.70;99.90;;;;;;1839871;76;21482;-78
2022/03/21 03:39:36;;;;;;;15.80;8.35;;;3.60;99.90;;;;;;1812500;77;21079;-79
2022/03/21 03:42:03;;;;;;;11.73;7.72;;;3.60;99.90;;;;;;1817339;77;21157;-79
2022/03/21 03:44:30;;;;;;;14.50;8.95;;;3.60;99.90;;;;;;1843885;78;21222;-79
2022/03/21 03:46:58;;;;;;;14.05;8.63;;;3.60;99.90;;;;;;1821435;77;21080;-78
2022/03/21 03:49:27;;;;;;;17.87;9.25;;;3.50;99.90;;;;;;1820293;77;21055;-78
2022/03/21 03:51:54;;;;;;;14.98;8.48;;;3.50;99.90;;;;;;1808371;78;21141;-79
2022/03/21 03:54:21;;;;;;;12.45;8.78;;;3.50;99.90;;;;;;1835887;77;21435;-78
2022/03/21 03:56:49;;;;;;;13.72;8.70;;;3.40;99.90;;;;;;1818082;77;21082;-78
2022/03/21 03:59:16;;;;;;;12.45;8.80;;;3.40;99.90;;;;;;1832318;77;21475;-78
2022/03/21 04:01:43;;;;;;;20.85;9.63;;;3.30;99.90;;;;;;1847383;77;21545;-77
2022/03/21 04:04:11;;;;;;;13.93;9.25;;;3.10;99.90;;;;;;1832753;77;21106;-78
2022/03/21 04:06:38;;;;;;;12.28;9.03;;;3.10;99.90;;;;;;1824437;77;21161;-77
2022/03/21 04:09:05;;;;;;;18.32;8.33;;;3.10;99.90;;;;;;1822061;77;21460;-78
2022/03/21 04:11:33;;;;;;;13.22;9.00;;;3.10;99.90;;;;;;1806941;77;21192;-78
2022/03/21 04:14:00;;;;;;;11.90;8.33;;;3.10;99.90;;;;;;1826909;77;21122;-78
2022/03/21 04:16:27;;;;;;;11.78;8.73;;;3.00;99.90;;;;;;1818555;77;21083;-78
2022/03/21 04:18:54;;;;;;;16.75;8.58;;;3.00;99.90;;;;;;1826976;78;21063;-77
2022/03/21 04:21:22;;;;;;;14.90;9.30;;;2.90;99.90;;;;;;1816709;77;21099;-78
2022/03/21 04:23:49;;;;;;;13.53;9.23;;;2.90;99.90;;;;;;1842512;77;21274;-78
2022/03/21 04:26:16;;;;;;;11.80;8.83;;;2.90;99.90;;;;;;1830835;77;21477;-77
2022/03/21 04:28:44;;;;;;;12.82;8.65;;;2.90;99.90;;;;;;1828422;77;21137;-79
2022/03/21 04:31:12;;;;;;;12.30;8.00;;;2.80;99.90;;;;;;1829686;77;21126;-78
2022/03/21 04:33:39;;;;;;;15.05;9.10;;;2.80;99.90;;;;;;1819552;78;21152;-78
2022/03/21 04:36:06;;;;;;;13.20;8.50;;;2.80;99.90;;;;;;1832638;76;21157;-78
2022/03/21 04:38:34;;;;;;;24.57;8.98;;;2.80;99.90;;;;;;1813944;77;21056;-76
2022/03/21 04:41:01;;;;;;;15.88;9.08;;;2.70;99.90;;;;;;1810645;77;21152;-79
2022/03/21 04:43:28;;;;;;;12.50;8.75;;;2.70;99.90;;;;;;1819370;77;21079;-77
2022/03/21 04:45:56;;;;;;;14.25;8.68;;;2.70;99.90;;;;;;1843758;78;21506;-78
2022/03/21 04:48:23;;;;;;;15.70;9.10;;;2.70;99.90;;;;;;1833929;77;21056;-79
2022/03/21 04:50:51;;;;;;;14.87;8.75;;;2.70;99.90;;;;;;1848699;77;21066;-76
2022/03/21 04:53:18;;;;;;;12.05;8.73;;;2.60;99.90;;;;;;1828326;77;21094;-77
2022/03/21 04:55:45;;;;;;;12.80;8.98;;;2.60;99.90;;;;;;1828633;77;21483;-78
2022/03/21 04:58:13;;;;;;;13.78;9.38;;;2.60;99.90;;;;;;1834928;77;21095;-77
2022/03/21 05:00:40;;;;;;;13.72;9.00;;;2.60;99.90;;;;;;1807588;77;21177;-76
2022/03/21 05:03:08;;;;;;;14.18;9.10;;;2.50;99.90;;;;;;1825073;77;21083;-77
2022/03/21 05:05:35;;;;;;;12.28;9.38;;;2.50;99.90;;;;;;1831641;77;21079;-77
2022/03/21 05:08:03;;;;;;;19.42;9.13;;;2.40;99.90;;;;;;1809586;78;21083;-77
2022/03/21 05:10:31;;;;;;;13.95;10.03;;;2.50;99.90;;;;;;1809525;77;21582;-79
2022/03/21 05:12:59;;;;;;;17.62;9.50;;;2.50;99.90;;;;;;1813318;76;21246;-77
2022/03/21 05:15:26;;;;;;;15.58;9.70;;;2.40;99.90;;;;;;1816706;78;21125;-76
2022/03/21 05:17:53;;;;;;;13.90;9.60;;;2.40;99.90;;;;;;1827981;77;21191;-77
2022/03/21 05:20:21;;;;;;;13.22;9.45;;;2.40;99.90;;;;;;1817895;77;21204;-76
2022/03/21 05:31:09;;;;;;;14.93;9.88;;;2.20;99.90;;;;;;1834540;77;21092;-80
2022/03/21 05:36:26;;;;;;;13.88;9.00;;;2.20;99.90;;;;;;1809138;77;21158;-78
2022/03/21 05:38:54;;;;;;;25.85;10.10;;;2.10;99.90;;;;;;1829248;77;21158;-79
2022/03/21 05:41:23;;;;;;;13.55;9.45;;;2.10;99.90;;;;;;1829576;77;21209;-77
2022/03/21 05:43:50;;;;;;;15.00;9.93;;;2.20;99.90;;;;;;1805807;77;21385;-78
2022/03/21 05:46:18;;;;;;;17.20;9.83;;;2.30;99.90;;;;;;1810045;78;21475;-78
2022/03/21 05:48:51;;;;;;;14.98;9.93;;;2.30;99.90;;;;;;1818775;76;21147;-79
2022/03/21 05:51:27;;;;;;;12.20;8.90;;;2.30;99.90;;;;;;1837509;77;21095;-77
2022/03/21 05:53:52;;;;;;;14.63;9.28;;;2.40;99.90;;;;;;1837640;77;21222;-78
2022/03/21 05:56:19;;;;;;;13.53;9.38;;;2.40;99.90;;;;;;1838784;77;21181;-77
2022/03/21 05:58:46;;;;;;;19.27;10.90;;;2.50;99.90;;;;;;1832701;77;21074;-78
2022/03/21 06:01:21;;;;;;;15.70;10.30;;;2.60;99.90;;;;;;1808818;79;21086;-77
2022/03/21 06:03:47;;;;;;;13.15;9.78;;;2.60;99.90;;;;;;1844045;77;21487;-77
2022/03/21 06:06:15;;;;;;;14.55;9.88;;;2.60;99.90;;;;;;1837508;77;21072;-74
2022/03/21 06:08:43;;;;;;;14.68;9.15;;;2.70;99.90;;;;;;1844234;77;21129;-72
2022/03/21 06:11:12;;;;;;;15.45;10.00;;;2.70;99.90;;;;;;1828059;77;21643;-71
2022/03/21 06:13:42;;;;;;;19.48;9.03;;;2.80;99.90;;;;;;1818943;77;21090;-72
2022/03/21 06:16:10;;;;;;;19.77;10.18;;;2.80;99.90;;;;;;1812171;77;21087;-72
2022/03/21 06:18:37;;;;;;;13.32;9.65;;;2.80;99.90;;;;;;1825873;77;21063;-72
2022/03/21 06:21:07;;;;;;;15.30;9.88;;;2.90;99.90;;;;;;1822942;77;21091;-74
2022/03/21 06:23:34;;;;;;;13.22;9.35;;;3.00;99.90;;;;;;1832462;78;21503;-74
2022/03/21 06:26:02;;;;;;;17.55;10.15;;;3.20;99.90;;;;;;1824925;76;21086;-74
2022/03/21 06:28:30;;;;;;;24.92;10.93;;;3.30;99.90;;;;;;1827821;77;21088;-75
2022/03/21 06:30:58;;;;;;;16.02;8.45;;;3.40;99.90;;;;;;1826453;77;21148;-74
2022/03/21 06:33:27;;;;;;;14.87;9.75;;;3.50;99.90;;;;;;1822224;77;21083;-76
2022/03/21 06:35:55;;;;;;;14.73;9.90;;;3.60;99.90;;;;;;1820176;77;21488;-74
2022/03/21 06:38:24;;;;;;;18.98;10.08;;;3.70;99.90;;;;;;1837396;77;21090;-71
2022/03/21 06:40:51;;;;;;;19.87;9.78;;;3.70;99.90;;;;;;1805858;78;21091;-74
2022/03/21 06:43:20;;;;;;;18.15;9.53;;;3.80;99.90;;;;;;1823169;77;21219;-73
2022/03/21 06:45:48;;;;;;;14.38;9.68;;;3.80;99.90;;;;;;1838050;77;21099;-74
2022/03/21 06:48:15;;;;;;;15.10;9.78;;;4.00;99.90;;;;;;1835817;77;21103;-74
2022/03/21 06:50:43;;;;;;;14.40;9.08;;;4.20;99.90;;;;;;1840660;77;21391;-75
2022/03/21 06:53:10;;;;;;;15.85;9.55;;;4.30;99.90;;;;;;1808234;77;21468;-74
2022/03/21 06:55:38;;;;;;;15.58;9.23;;;4.50;99.90;;;;;;1845812;77;21179;-73
2022/03/21 06:58:06;;;;;;;15.70;9.73;;;4.70;99.90;;;;;;1829730;76;21154;-75
2022/03/21 07:00:34;;;;;;;16.73;9.53;;;4.80;99.90;;;;;;1844300;77;21090;-73
2022/03/21 07:03:02;;;;;;;14.63;9.25;;;4.80;99.90;;;;;;1850207;77;21090;-73
2022/03/21 07:05:30;;;;;;;16.42;8.85;;;4.90;99.90;;;;;;1849530;77;21043;-74
2022/03/21 07:07:57;;;;;;;14.18;9.80;;;4.90;99.90;;;;;;1835688;77;21079;-73
2022/03/21 07:10:25;;;;;;;15.63;9.98;;;5.10;99.90;;;;;;1819042;77;21443;-73
2022/03/21 07:12:52;;;;;;;14.63;8.78;;;5.20;99.90;;;;;;1830970;77;21525;-73
2022/03/21 07:15:19;;;;;;;17.98;8.98;;;5.20;99.90;;;;;;1827394;77;21151;-76
2022/03/21 07:17:48;;;;;;;18.32;9.83;;;5.30;99.90;;;;;;1829616;77;21153;-75
2022/03/21 07:20:20;;;;;;;15.83;9.95;;;5.40;99.90;;;;;;1829399;77;21087;-72
2022/03/21 07:22:47;;;;;;;14.20;9.05;;;5.50;99.90;;;;;;1820533;77;21173;-73
2022/03/21 07:25:14;;;;;;;16.10;9.78;;;5.70;99.90;;;;;;1816956;77;21083;-75
2022/03/21 07:27:45;;;;;;;20.48;10.13;;;5.70;99.90;;;;;;1827623;77;21123;-74
2022/03/21 07:30:14;;;;;;;23.50;9.25;;;5.90;99.90;;;;;;1814105;77;21118;-75
2022/03/21 07:32:45;;;;;;;18.82;9.43;;;5.90;99.90;;;;;;1823198;77;21223;-75
2022/03/21 07:35:13;;;;;;;19.02;9.93;;;6.00;99.90;;;;;;1817076;77;21082;-75
2022/03/21 07:37:46;;;;;;;17.73;9.38;;;6.10;99.90;;;;;;1822783;77;21072;-74
2022/03/21 07:40:13;;;;;;;16.95;9.25;;;6.20;99.90;;;;;;1813269;77;21091;-76
2022/03/21 07:42:41;;;;;;;16.35;9.78;;;6.30;99.90;;;;;;1813837;78;21051;-75
2022/03/21 07:47:56;;;;;;;17.73;9.70;;;6.40;99.90;;;;;;1830032;77;21597;-74
2022/03/21 07:50:26;;;;;;;17.85;9.10;;;6.50;99.90;;;;;;1832258;77;21479;-74
2022/03/21 07:52:54;;;;;;;16.42;9.15;;;6.60;99.90;;;;;;1838758;77;21126;-74
2022/03/21 07:55:22;;;;;;;14.87;10.03;;;6.70;99.90;;;;;;1809267;76;21103;-74
2022/03/21 07:57:49;;;;;;;16.10;9.03;;;6.80;99.90;;;;;;1821521;77;21497;-74
2022/03/21 08:00:17;;;;;;;15.08;9.05;;;7.10;99.90;;;;;;1829959;77;21157;-74
2022/03/21 08:02:45;;;;;;;13.85;9.10;;;7.20;99.90;;;;;;1838078;77;21144;-74
2022/03/21 08:05:13;;;;;;;17.95;9.28;;;7.50;99.90;;;;;;1815291;77;21530;-74
2022/03/21 08:07:42;;;;;;;14.13;9.60;;;7.60;99.90;;;;;;1818250;78;21543;-73
2022/03/21 08:10:09;;;;;;;16.50;10.93;;;7.80;99.90;;;;;;1839362;77;21141;-73
2022/03/21 08:12:42;;;;;;;16.82;9.20;;;7.80;99.90;;;;;;1837190;77;21153;-72
2022/03/21 08:15:06;;;;;;;14.80;9.40;;;7.70;99.90;;;;;;1825611;77;21157;-72
2022/03/21 08:17:36;;;;;;;16.42;8.98;;;8.10;99.90;;;;;;1833780;77;21515;-73
2022/03/21 08:20:03;;;;;;;15.85;9.63;;;8.30;99.90;;;;;;1831330;77;21194;-74
2022/03/21 08:22:31;;;;;;;18.25;9.03;;;8.60;99.90;;;;;;1817873;77;21866;-72
2022/03/21 08:24:59;;;;;;;15.50;9.30;;;8.90;99.90;;;;;;1815324;77;21079;-74
2022/03/21 08:27:26;;;;;;;16.12;8.68;;;9.20;99.90;;;;;;1822138;77;21190;-75
2022/03/21 08:29:53;;;;;;;14.20;9.50;;;9.30;99.90;;;;;;1820896;77;21285;-75
2022/03/21 08:32:21;;;;;;;21.05;9.55;;;9.30;99.90;;;;;;1840579;77;21161;-73
2022/03/21 08:34:48;;;;;;;14.85;8.90;;;9.70;99.90;;;;;;1821121;77;21165;-74
2022/03/21 08:37:17;;;;;;;17.55;9.33;;;10.10;99.90;;;;;;1808074;77;21113;-73
2022/03/21 08:39:44;;;;;;;12.15;8.35;;;10.30;99.90;;;;;;1833179;77;21071;-74
2022/03/21 08:42:12;;;;;;;14.35;8.58;;;10.70;99.90;;;;;;1808833;77;21118;-74
2022/03/21 08:44:39;;;;;;;16.35;9.48;;;10.50;99.90;;;;;;1818409;77;21474;-73
2022/03/21 08:47:07;;;;;;;12.90;8.63;;;10.70;99.90;;;;;;1809663;78;21476;-74
2022/03/21 08:49:37;;;;;;;17.07;8.73;;;11.10;98.80;;;;;;1830863;77;21079;-74
2022/03/21 08:52:06;;;;;;;13.72;9.38;;;10.60;98.60;;;;;;1825408;77;21490;-74
2022/03/21 08:54:33;;;;;;;16.73;8.57;;;10.30;99.90;;;;;;1820083;77;21471;-72
2022/03/21 08:57:04;;;;;;;13.03;8.75;;;10.60;99.90;;;;;;1816835;77;21145;-73
2022/03/21 08:59:29;;;;;;;15.88;9.50;;;10.70;99.00;;;;;;1829222;77;21076;-74
2022/03/21 09:01:57;;;;;;;16.42;8.88;;;11.00;99.20;;;;;;1825183;77;21145;-73
2022/03/21 09:04:24;;;;;;;15.72;9.70;;;11.50;98.20;;;;;;1819567;77;21087;-73
2022/03/21 09:06:52;;;;;;;17.23;9.20;;;11.70;96.60;;;;;;1811579;79;21107;-74
2022/03/21 09:09:19;;;;;;;17.40;9.18;;;11.70;96.40;;;;;;1811203;77;21090;-74
2022/03/21 09:11:48;;;;;;;14.40;9.05;;;11.60;96.40;;;;;;1820560;77;21165;-73
2022/03/21 09:14:15;;;;;;;13.62;9.10;;;11.70;95.10;;;;;;1820651;77;21067;-74
2022/03/21 09:16:43;;;;;;;14.87;9.00;;;11.90;94.70;;;;;;1832401;77;21098;-72
2022/03/21 09:19:10;;;;;;;16.73;9.55;;;12.40;94.70;;;;;;1824827;77;21489;-72
2022/03/21 09:21:38;;;;;;;14.00;9.48;;;12.30;94.00;;;;;;1814534;77;21075;-74
2022/03/21 09:24:05;;;;;;;14.87;9.00;;;12.50;94.00;;;;;;1814529;77;21147;-74
2022/03/21 09:26:33;;;;;;;14.53;9.90;;;12.60;92.10;;;;;;1815960;77;21240;-74
2022/03/21 09:29:02;;;;;;;14.63;9.75;;;12.50;92.70;;;;;;1804628;79;21032;-74
2022/03/21 09:31:32;;;;;;;15.45;9.00;;;12.80;93.10;;;;;;1813093;77;21055;-73
2022/03/21 09:33:59;;;;;;;15.13;9.83;;;13.40;92.10;;;;;;1826135;77;21557;-74
2022/03/21 09:36:27;;;;;;;18.57;9.65;;;13.40;90.50;;;;;;1822595;76;21056;-74
2022/03/21 09:38:54;;;;;;;13.40;9.68;;;12.70;91.50;;;;;;1819580;76;21141;-74
2022/03/21 09:41:26;;;;;;;12.55;9.15;;;12.70;91.50;;;;;;1796106;77;21199;-73
2022/03/21 09:44:00;;;;;;;19.32;10.05;;;12.90;91.90;;;;;;1843566;77;21487;-74
2022/03/21 09:46:27;;;;;;;13.62;9.13;;;13.40;90.50;;;;;;1810199;78;21126;-74
2022/03/21 09:48:56;;;;;;;17.55;9.48;;;13.70;89.40;;;;;;1829733;78;21079;-76
2022/03/21 09:51:25;;;;;;;15.88;9.83;;;13.90;89.70;;;;;;1817234;77;21107;-74
2022/03/21 09:53:53;;;;;;;14.30;9.83;;;14.20;87.20;;;;;;1835896;77;21624;-74
2022/03/21 09:56:20;;;;;;;17.30;9.93;;;13.80;87.30;;;;;;1843858;77;21070;-74
2022/03/21 09:58:53;;;;;;;14.03;9.50;;;14.40;86.80;;;;;;1819852;77;21083;-73
2022/03/21 10:01:20;;;;;;;14.55;9.93;;;14.60;84.00;;;;;;1819252;77;21126;-74
2022/03/21 10:03:47;;;;;;;14.73;9.20;;;14.60;83.50;;;;;;1826996;77;21125;-73
2022/03/21 10:06:37;;;;;;;15.68;10.20;;;14.20;84.60;;;;;;1816154;77;21145;-75
2022/03/21 10:09:12;;;;;;;17.98;10.23;;;14.20;84.40;;;;;;1828469;77;21103;-75
2022/03/21 10:11:43;;;;;;;11.80;9.33;;;14.40;84.10;;;;;;1836928;77;21098;-73
2022/03/21 10:14:34;;;;;;;18.48;10.43;;;15.20;86.00;;;;;;1843464;77;21095;-74
2022/03/21 10:17:10;;;;;;;;;;;15.70;80.40;;;;;;1847053;77;21181;-74
2022/03/21 10:19:47;;;;;;;16.00;10.63;;;15.40;79.30;;;;;;1832875;77;20107;-75
2022/03/21 10:22:16;;;;;;;16.45;10.32;;;15.50;79.00;;;;;;1823742;77;21095;-74
2022/03/21 10:24:46;;;;;;;15.85;10.65;;;15.80;78.50;;;;;;1840509;77;21094;-74
2022/03/21 10:27:33;;;;;;;25.82;10.93;;;16.10;78.20;;;;;;1837957;77;21079;-75
2022/03/21 10:30:03;;;;;;;15.03;11.10;;;16.30;74.80;;;;;;1815721;77;21079;-75
2022/03/21 10:32:32;;;;;;;21.82;13.48;;;15.80;74.90;;;;;;1831978;77;21098;-74
2022/03/21 10:35:08;;;;;;;15.90;10.75;;;15.80;75.70;;;;;;1824538;77;21157;-75
2022/03/21 10:37:52;;;;;;;22.22;10.82;;;15.80;76.30;;;;;;1818909;77;21071;-75
2022/03/21 10:40:34;;;;;;;17.35;11.00;;;16.20;74.60;;;;;;1811502;77;21138;-75
2022/03/21 10:43:05;;;;;;;15.20;10.38;;;16.40;72.20;;;;;;1833088;77;21083;-73
2022/03/21 10:45:36;;;;;;;;;;;16.60;71.20;;;;;;1821650;77;21087;-73
2022/03/21 10:48:18;;;;;;;17.37;10.85;;;15.90;73.30;;;;;;1850081;77;20169;-73
2022/03/21 10:50:48;;;;;;;17.60;10.53;;;15.40;74.90;;;;;;1824551;77;21075;-73
2022/03/21 10:53:18;;;;;;;20.10;12.23;;;15.20;76.40;;;;;;1811860;77;21514;-73
2022/03/21 10:55:46;;;;;;;15.70;10.43;;;14.70;76.50;;;;;;1829394;77;21076;-73
2022/03/21 10:58:15;;;;;;;26.40;11.33;;;14.90;77.80;;;;;;1827193;78;21095;-73
2022/03/21 11:00:43;;;;;;;19.23;11.48;;;14.90;77.70;;;;;;1833488;78;21085;-73
2022/03/21 11:03:18;;;;;;;22.70;11.63;;;15.00;77.40;;;;;;1813961;78;21150;-72
2022/03/21 11:05:47;;;;;;;18.45;10.85;;;15.50;75.80;;;;;;1813797;77;21087;-74
2022/03/21 11:08:16;;;;;;;16.77;10.68;;;15.80;74.80;;;;;;1815291;77;21601;-73
2022/03/21 11:10:43;;;;;;;22.20;11.28;;;16.30;74.10;;;;;;1808045;78;21138;-73
2022/03/21 11:13:11;;;;;;;16.75;11.10;;;16.60;72.60;;;;;;1818704;77;21488;-73
2022/03/21 11:15:40;;;;;;;18.90;11.25;;;16.80;71.30;;;;;;1844865;76;21607;-73
2022/03/21 11:18:08;;;;;;;25.05;10.85;;;16.80;72.70;;;;;;1831246;77;21160;-74
2022/03/21 11:20:35;;;;;;;19.70;10.38;;;17.20;70.70;;;;;;1804700;78;21113;-72
2022/03/21 11:23:03;;;;;;;16.37;10.82;;;17.00;70.10;;;;;;1810819;78;21467;-73
2022/03/21 11:25:32;;;;;;;18.62;11.83;;;16.80;71.90;;;;;;1815225;77;21044;-73
2022/03/21 11:28:17;;;;;;;17.20;11.03;;;17.30;70.00;;;;;;1820746;77;21156;-71
2022/03/21 11:31:17;;;;;;;22.90;10.13;;;17.70;69.60;;;;;;1821852;77;21079;-73
2022/03/21 11:33:56;;;;;;;16.07;11.10;;;17.90;69.60;;;;;;1812876;76;21162;-74
2022/03/21 11:36:50;;;;;;;14.20;10.68;;;18.00;68.10;;;;;;1809273;78;21406;-73
2022/03/21 11:39:19;;;;;;;14.68;10.43;;;18.90;65.20;;;;;;1932664;74;21162;-74
2022/03/21 11:41:57;;;;;;;17.27;10.40;;;18.80;64.40;;;;;;1929740;73;21064;-73
2022/03/21 11:44:25;;;;;;;19.90;10.88;;;18.60;65.10;;;;;;1926654;73;21047;-72
2022/03/21 11:46:52;;;;;;;18.45;10.95;;;18.90;64.60;;;;;;1928999;73;21056;-72
2022/03/21 11:49:23;;;;;;;16.97;9.60;;;19.10;63.50;;;;;;1927230;74;21121;-73
2022/03/21 11:52:00;;;;;;;14.68;9.88;;;19.50;63.30;;;;;;1921703;73;21146;-72
2022/03/21 11:54:37;;;;;;;16.02;9.68;;;19.70;61.60;;;;;;1922931;74;21454;-72
2022/03/21 11:57:10;;;;;;;12.20;9.40;;;19.20;61.90;;;;;;1921865;73;20988;-74
2022/03/21 12:02:30;;;;;;;13.95;9.53;;;20.10;60.10;;;;;;1899824;74;21108;-72
2022/03/21 12:05:09;;;;;;;12.15;8.78;;;19.40;59.80;;;;;;1902286;75;21138;-73
2022/03/21 12:07:38;;;;;;;13.22;9.20;;;19.40;60.60;;;;;;1898536;74;21061;-72
2022/03/21 12:10:07;;;;;;;13.18;9.10;;;19.80;61.30;;;;;;1906085;74;21179;-72
2022/03/21 12:12:43;;;;;;;12.05;9.50;;;19.70;59.40;;;;;;1908169;75;21085;-72
2022/03/21 12:15:15;;;;;;;16.55;10.13;;;20.10;58.70;;;;;;1876377;75;21474;-72
2022/03/21 12:17:48;;;;;;;12.33;8.73;;;20.00;59.60;;;;;;1908764;73;21147;-72
2022/03/21 12:20:18;;;;;;;15.58;10.70;;;19.90;59.00;;;;;;1901018;75;21058;-72
2022/03/21 12:22:47;;;;;;;;;;;19.30;60.10;;;;;;1842619;77;21074;-72
2022/03/21 12:25:33;;;;;;;14.68;9.25;;;19.20;59.80;;;;;;1884806;74;20121;-73
2022/03/21 12:30:54;;;;;;;15.45;9.33;;;19.70;58.60;;;;;;1839102;76;21050;-73
2022/03/21 12:33:24;;;;;;;18.25;9.33;;;19.50;59.40;;;;;;1892032;74;21146;-74
2022/03/21 12:35:54;;;;;;;16.93;9.53;;;19.60;58.30;;;;;;1885595;74;21212;-73
2022/03/21 12:38:34;;;;;;;16.57;10.15;;;19.30;59.10;;;;;;1882124;75;21083;-73
2022/03/21 12:41:02;;;;;;;15.53;9.50;;;19.40;58.40;;;;;;1851761;75;21163;-74
2022/03/21 12:43:35;;;;;;;14.28;9.55;;;19.00;59.60;;;;;;1886617;75;21058;-74
2022/03/21 12:46:09;;;;;;;18.35;9.85;;;18.70;59.70;;;;;;1885954;75;21126;-73
2022/03/21 12:48:40;;;;;;;25.00;9.80;;;18.90;59.40;;;;;;1882301;75;21481;-73
2022/03/21 12:51:08;;;;;;;19.32;9.95;;;18.60;59.50;;;;;;1886211;74;21333;-74
2022/03/21 12:53:51;;;;;;;17.12;10.30;;;18.90;59.70;;;;;;1902297;74;21520;-73
2022/03/21 12:56:19;;;;;;;19.92;9.83;;;19.20;59.70;;;;;;1902235;75;21069;-75
2022/03/21 12:58:50;;;;;;;16.12;9.63;;;19.60;58.50;;;;;;1902278;74;21088;-74
2022/03/21 13:01:18;;;;;;;19.48;9.75;;;19.90;58.90;;;;;;1871562;75;21138;-75
2022/03/21 13:03:46;;;;;;;11.20;8.68;;;20.30;57.30;;;;;;1896653;74;21688;-73
2022/03/21 13:11:38;;;;;;;14.18;9.58;;;20.00;58.40;;;;;;1833380;76;21147;-75
2022/03/21 13:14:15;;;;;;;17.75;9.88;;;20.90;55.50;;;;;;1882664;74;21480;-74
2022/03/21 13:16:50;;;;;;;16.87;9.75;;;20.40;55.40;;;;;;1879371;74;21189;-74
2022/03/21 13:19:22;;;;;;;13.32;8.70;;;20.30;55.90;;;;;;1899013;74;21151;-73
2022/03/21 13:21:50;;;;;;;14.33;9.23;;;20.50;55.70;;;;;;1871152;76;21133;-73